sensor_id;sensor_type;location;lat;lon;timestamp;P1;durP1;ratioP1;P2;durP2;ratioP2
55146;SDS011;41039;49.830;23.988;2022-09-21T00:00:08;9.00;;;5.60;;
55146;SDS011;41039;49.830;23.988;2022-09-21T00:02:33;10.82;;;5.93;;
55146;SDS011;41039;49.830;23.988;2022-09-21T00:04:59;8.98;;;6.35;;
55146;SDS011;41039;49.830;23.988;2022-09-21T00:07:24;8.88;;;6.30;;
55146;SDS011;41039;49.830;23.988;2022-09-21T00:09:49;9.25;;;6.00;;
55146;SDS011;41039;49.830;23.988;2022-09-21T00:12:14;7.68;;;5.82;;
55146;SDS011;41039;49.830;23.988;2022-09-21T00:14:41;13.82;;;6.55;;
55146;SDS011;41039;49.830;23.988;2022-09-21T00:17:06;7.70;;;5.80;;
55146;SDS011;41039;49.830;23.988;2022-09-21T00:19:33;9.52;;;6.53;;
55146;SDS011;41039;49.830;23.988;2022-09-21T00:21:58;10.55;;;6.72;;
55146;SDS011;41039;49.830;23.988;2022-09-21T00:24:23;9.73;;;6.40;;
55146;SDS011;41039;49.830;23.988;2022-09-21T00:26:49;10.45;;;6.35;;
55146;SDS011;41039;49.830;23.988;2022-09-21T00:29:14;9.60;;;6.45;;
55146;SDS011;41039;49.830;23.988;2022-09-21T00:31:39;9.43;;;6.20;;
55146;SDS011;41039;49.830;23.988;2022-09-21T00:34:04;9.20;;;6.43;;
55146;SDS011;41039;49.830;23.988;2022-09-21T00:36:32;8.77;;;6.78;;
55146;SDS011;41039;49.830;23.988;2022-09-21T00:38:58;9.60;;;6.90;;
55146;SDS011;41039;49.830;23.988;2022-09-21T00:41:24;11.88;;;7.15;;
55146;SDS011;41039;49.830;23.988;2022-09-21T00:46:35;11.40;;;7.43;;
55146;SDS011;41039;49.830;23.988;2022-09-21T00:49:01;10.57;;;8.75;;
55146;SDS011;41039;49.830;23.988;2022-09-21T00:51:27;10.85;;;8.68;;
55146;SDS011;41039;49.830;23.988;2022-09-21T00:53:53;11.10;;;8.50;;
55146;SDS011;41039;49.830;23.988;2022-09-21T00:56:20;10.23;;;8.00;;
55146;SDS011;41039;49.830;23.988;2022-09-21T00:58:47;9.75;;;7.18;;
55146;SDS011;41039;49.830;23.988;2022-09-21T01:01:13;10.18;;;7.47;;
55146;SDS011;41039;49.830;23.988;2022-09-21T01:03:43;10.40;;;6.47;;
55146;SDS011;41039;49.830;23.988;2022-09-21T01:06:09;10.10;;;6.72;;
55146;SDS011;41039;49.830;23.988;2022-09-21T01:08:34;9.98;;;6.82;;
55146;SDS011;41039;49.830;23.988;2022-09-21T01:19:06;9.05;;;6.50;;
55146;SDS011;41039;49.830;23.988;2022-09-21T01:21:37;8.70;;;6.00;;
55146;SDS011;41039;49.830;23.988;2022-09-21T01:32:35;10.48;;;5.82;;
55146;SDS011;41039;49.830;23.988;2022-09-21T01:34:44;8.75;;;5.50;;
55146;SDS011;41039;49.830;23.988;2022-09-21T01:37:15;8.45;;;5.40;;
55146;SDS011;41039;49.830;23.988;2022-09-21T01:39:42;7.88;;;5.78;;
55146;SDS011;41039;49.830;23.988;2022-09-21T01:42:08;7.72;;;5.00;;
55146;SDS011;41039;49.830;23.988;2022-09-21T01:44:34;8.43;;;5.47;;
55146;SDS011;41039;49.830;23.988;2022-09-21T01:47:01;9.95;;;5.28;;
55146;SDS011;41039;49.830;23.988;2022-09-21T01:49:31;8.32;;;5.38;;
55146;SDS011;41039;49.830;23.988;2022-09-21T01:52:02;8.02;;;6.20;;
55146;SDS011;41039;49.830;23.988;2022-09-21T01:54:36;10.98;;;6.45;;
55146;SDS011;41039;49.830;23.988;2022-09-21T01:57:07;11.10;;;7.00;;
55146;SDS011;41039;49.830;23.988;2022-09-21T01:59:54;8.10;;;5.85;;
55146;SDS011;41039;49.830;23.988;2022-09-21T02:04:51;10.43;;;6.68;;
55146;SDS011;41039;49.830;23.988;2022-09-21T02:07:17;9.18;;;6.60;;
55146;SDS011;41039;49.830;23.988;2022-09-21T02:09:42;8.65;;;5.93;;
55146;SDS011;41039;49.830;23.988;2022-09-21T02:12:11;9.65;;;6.78;;
55146;SDS011;41039;49.830;23.988;2022-09-21T02:14:36;9.65;;;5.78;;
55146;SDS011;41039;49.830;23.988;2022-09-21T02:32:01;10.98;;;6.00;;
55146;SDS011;41039;49.830;23.988;2022-09-21T02:34:39;7.55;;;5.53;;
55146;SDS011;41039;49.830;23.988;2022-09-21T02:39:39;8.73;;;5.93;;
55146;SDS011;41039;49.830;23.988;2022-09-21T02:44:35;6.88;;;4.95;;
55146;SDS011;41039;49.830;23.988;2022-09-21T02:47:11;7.28;;;5.00;;
55146;SDS011;41039;49.830;23.988;2022-09-21T02:49:38;7.55;;;4.65;;
55146;SDS011;41039;49.830;23.988;2022-09-21T02:52:07;7.07;;;4.93;;
55146;SDS011;41039;49.830;23.988;2022-09-21T02:54:34;7.95;;;5.20;;
55146;SDS011;41039;49.830;23.988;2022-09-21T02:57:00;7.65;;;5.50;;
55146;SDS011;41039;49.830;23.988;2022-09-21T02:59:26;6.60;;;4.93;;
55146;SDS011;41039;49.830;23.988;2022-09-21T03:01:52;6.13;;;4.65;;
55146;SDS011;41039;49.830;23.988;2022-09-21T03:04:18;7.22;;;5.25;;
55146;SDS011;41039;49.830;23.988;2022-09-21T03:06:43;9.05;;;4.70;;
55146;SDS011;41039;49.830;23.988;2022-09-21T03:09:08;6.97;;;5.20;;
55146;SDS011;41039;49.830;23.988;2022-09-21T03:11:34;9.02;;;5.70;;
55146;SDS011;41039;49.830;23.988;2022-09-21T03:14:00;11.18;;;7.38;;
55146;SDS011;41039;49.830;23.988;2022-09-21T03:16:26;11.35;;;6.65;;
55146;SDS011;41039;49.830;23.988;2022-09-21T03:18:53;9.88;;;6.60;;
55146;SDS011;41039;49.830;23.988;2022-09-21T03:21:18;10.57;;;7.95;;
55146;SDS011;41039;49.830;23.988;2022-09-21T03:23:43;9.23;;;7.13;;
55146;SDS011;41039;49.830;23.988;2022-09-21T03:26:08;11.82;;;7.72;;
55146;SDS011;41039;49.830;23.988;2022-09-21T03:28:34;12.85;;;8.82;;
55146;SDS011;41039;49.830;23.988;2022-09-21T03:30:59;14.98;;;9.38;;
55146;SDS011;41039;49.830;23.988;2022-09-21T03:33:25;17.23;;;10.63;;
55146;SDS011;41039;49.830;23.988;2022-09-21T03:35:50;12.80;;;9.32;;
55146;SDS011;41039;49.830;23.988;2022-09-21T03:38:16;11.35;;;8.13;;
55146;SDS011;41039;49.830;23.988;2022-09-21T03:40:45;10.73;;;7.00;;
55146;SDS011;41039;49.830;23.988;2022-09-21T03:43:10;10.15;;;6.78;;
55146;SDS011;41039;49.830;23.988;2022-09-21T03:45:35;9.60;;;7.07;;
55146;SDS011;41039;49.830;23.988;2022-09-21T03:48:02;10.80;;;8.18;;
55146;SDS011;41039;49.830;23.988;2022-09-21T03:50:28;16.63;;;9.35;;
55146;SDS011;41039;49.830;23.988;2022-09-21T03:52:54;14.95;;;8.20;;
55146;SDS011;41039;49.830;23.988;2022-09-21T03:55:19;10.20;;;7.78;;
55146;SDS011;41039;49.830;23.988;2022-09-21T03:57:45;8.27;;;6.50;;
55146;SDS011;41039;49.830;23.988;2022-09-21T04:00:10;11.38;;;8.30;;
55146;SDS011;41039;49.830;23.988;2022-09-21T04:02:36;10.82;;;7.32;;
55146;SDS011;41039;49.830;23.988;2022-09-21T04:05:02;8.65;;;6.07;;
55146;SDS011;41039;49.830;23.988;2022-09-21T04:07:30;7.03;;;4.82;;
55146;SDS011;41039;49.830;23.988;2022-09-21T04:10:05;7.20;;;5.57;;
55146;SDS011;41039;49.830;23.988;2022-09-21T04:12:32;7.80;;;6.00;;
55146;SDS011;41039;49.830;23.988;2022-09-21T04:14:58;15.40;;;9.13;;
55146;SDS011;41039;49.830;23.988;2022-09-21T04:17:23;13.73;;;9.05;;
55146;SDS011;41039;49.830;23.988;2022-09-21T04:19:49;14.50;;;8.73;;
55146;SDS011;41039;49.830;23.988;2022-09-21T04:22:14;11.63;;;7.60;;
55146;SDS011;41039;49.830;23.988;2022-09-21T04:24:39;9.93;;;6.32;;
55146;SDS011;41039;49.830;23.988;2022-09-21T04:27:08;9.57;;;6.70;;
55146;SDS011;41039;49.830;23.988;2022-09-21T04:29:33;10.23;;;6.80;;
55146;SDS011;41039;49.830;23.988;2022-09-21T04:31:59;12.02;;;7.20;;
55146;SDS011;41039;49.830;23.988;2022-09-21T04:34:24;15.48;;;9.40;;
55146;SDS011;41039;49.830;23.988;2022-09-21T04:36:50;13.65;;;8.05;;
55146;SDS011;41039;49.830;23.988;2022-09-21T04:39:17;10.63;;;7.25;;
55146;SDS011;41039;49.830;23.988;2022-09-21T04:41:43;15.05;;;7.30;;
55146;SDS011;41039;49.830;23.988;2022-09-21T04:44:08;13.32;;;9.73;;
55146;SDS011;41039;49.830;23.988;2022-09-21T04:46:33;12.43;;;8.48;;
55146;SDS011;41039;49.830;23.988;2022-09-21T04:48:58;10.90;;;7.93;;
55146;SDS011;41039;49.830;23.988;2022-09-21T04:51:24;11.60;;;8.10;;
55146;SDS011;41039;49.830;23.988;2022-09-21T04:53:49;13.90;;;10.07;;
55146;SDS011;41039;49.830;23.988;2022-09-21T04:56:15;9.73;;;6.63;;
55146;SDS011;41039;49.830;23.988;2022-09-21T04:58:40;10.25;;;7.07;;
55146;SDS011;41039;49.830;23.988;2022-09-21T05:01:06;7.05;;;5.60;;
55146;SDS011;41039;49.830;23.988;2022-09-21T05:03:31;9.55;;;6.70;;
55146;SDS011;41039;49.830;23.988;2022-09-21T05:05:57;9.63;;;7.40;;
55146;SDS011;41039;49.830;23.988;2022-09-21T05:08:23;12.65;;;7.90;;
55146;SDS011;41039;49.830;23.988;2022-09-21T05:11:07;11.80;;;8.82;;
55146;SDS011;41039;49.830;23.988;2022-09-21T05:13:33;15.20;;;9.30;;
55146;SDS011;41039;49.830;23.988;2022-09-21T05:15:59;13.13;;;9.23;;
55146;SDS011;41039;49.830;23.988;2022-09-21T05:18:24;11.57;;;8.73;;
55146;SDS011;41039;49.830;23.988;2022-09-21T05:20:52;10.80;;;7.75;;
55146;SDS011;41039;49.830;23.988;2022-09-21T05:23:18;10.23;;;7.22;;
55146;SDS011;41039;49.830;23.988;2022-09-21T05:25:43;11.43;;;8.25;;
55146;SDS011;41039;49.830;23.988;2022-09-21T05:28:08;11.05;;;7.85;;
55146;SDS011;41039;49.830;23.988;2022-09-21T05:30:33;10.55;;;8.65;;
55146;SDS011;41039;49.830;23.988;2022-09-21T05:33:02;8.75;;;6.82;;
55146;SDS011;41039;49.830;23.988;2022-09-21T05:35:35;11.40;;;7.38;;
55146;SDS011;41039;49.830;23.988;2022-09-21T05:40:39;11.48;;;7.25;;
55146;SDS011;41039;49.830;23.988;2022-09-21T05:43:04;8.27;;;6.28;;
55146;SDS011;41039;49.830;23.988;2022-09-21T05:45:29;10.80;;;8.10;;
55146;SDS011;41039;49.830;23.988;2022-09-21T05:48:06;15.00;;;8.38;;
55146;SDS011;41039;49.830;23.988;2022-09-21T05:58:41;11.93;;;7.20;;
55146;SDS011;41039;49.830;23.988;2022-09-21T06:03:51;10.68;;;7.28;;
55146;SDS011;41039;49.830;23.988;2022-09-21T06:06:17;8.43;;;6.55;;
55146;SDS011;41039;49.830;23.988;2022-09-21T06:08:43;9.30;;;6.75;;
55146;SDS011;41039;49.830;23.988;2022-09-21T06:11:08;9.00;;;6.25;;
55146;SDS011;41039;49.830;23.988;2022-09-21T06:13:33;9.95;;;7.32;;
55146;SDS011;41039;49.830;23.988;2022-09-21T06:16:02;10.75;;;7.18;;
55146;SDS011;41039;49.830;23.988;2022-09-21T06:18:27;8.80;;;6.60;;
55146;SDS011;41039;49.830;23.988;2022-09-21T06:20:53;12.18;;;7.53;;
55146;SDS011;41039;49.830;23.988;2022-09-21T06:23:18;11.82;;;8.98;;
55146;SDS011;41039;49.830;23.988;2022-09-21T06:25:43;10.32;;;7.43;;
55146;SDS011;41039;49.830;23.988;2022-09-21T06:28:09;8.93;;;6.60;;
55146;SDS011;41039;49.830;23.988;2022-09-21T06:30:35;11.52;;;7.38;;
55146;SDS011;41039;49.830;23.988;2022-09-21T06:33:01;10.38;;;6.97;;
55146;SDS011;41039;49.830;23.988;2022-09-21T06:35:27;11.82;;;7.65;;
55146;SDS011;41039;49.830;23.988;2022-09-21T06:37:56;10.75;;;7.65;;
55146;SDS011;41039;49.830;23.988;2022-09-21T06:40:21;9.52;;;7.25;;
55146;SDS011;41039;49.830;23.988;2022-09-21T06:42:46;10.43;;;7.38;;
55146;SDS011;41039;49.830;23.988;2022-09-21T06:45:11;9.93;;;6.82;;
55146;SDS011;41039;49.830;23.988;2022-09-21T06:47:37;10.15;;;6.35;;
55146;SDS011;41039;49.830;23.988;2022-09-21T06:50:02;10.52;;;7.53;;
55146;SDS011;41039;49.830;23.988;2022-09-21T06:52:27;10.77;;;7.68;;
55146;SDS011;41039;49.830;23.988;2022-09-21T06:54:52;11.30;;;8.00;;
55146;SDS011;41039;49.830;23.988;2022-09-21T06:57:18;15.18;;;8.55;;
55146;SDS011;41039;49.830;23.988;2022-09-21T06:59:43;14.98;;;8.75;;
55146;SDS011;41039;49.830;23.988;2022-09-21T07:02:08;10.80;;;7.75;;
55146;SDS011;41039;49.830;23.988;2022-09-21T07:04:34;13.45;;;8.88;;
55146;SDS011;41039;49.830;23.988;2022-09-21T07:06:59;12.98;;;8.43;;
55146;SDS011;41039;49.830;23.988;2022-09-21T07:09:25;12.68;;;8.95;;
55146;SDS011;41039;49.830;23.988;2022-09-21T07:11:50;13.95;;;8.32;;
55146;SDS011;41039;49.830;23.988;2022-09-21T07:14:15;14.95;;;9.85;;
55146;SDS011;41039;49.830;23.988;2022-09-21T07:16:41;13.85;;;8.95;;
55146;SDS011;41039;49.830;23.988;2022-09-21T07:19:07;11.77;;;7.45;;
55146;SDS011;41039;49.830;23.988;2022-09-21T07:21:32;10.05;;;6.93;;
55146;SDS011;41039;49.830;23.988;2022-09-21T07:23:58;9.63;;;7.70;;
55146;SDS011;41039;49.830;23.988;2022-09-21T07:26:23;11.43;;;7.45;;
55146;SDS011;41039;49.830;23.988;2022-09-21T07:28:48;11.25;;;8.32;;
55146;SDS011;41039;49.830;23.988;2022-09-21T07:31:14;13.93;;;8.88;;
55146;SDS011;41039;49.830;23.988;2022-09-21T07:33:40;11.63;;;7.95;;
55146;SDS011;41039;49.830;23.988;2022-09-21T07:36:05;14.00;;;8.70;;
55146;SDS011;41039;49.830;23.988;2022-09-21T07:38:38;13.27;;;8.25;;
55146;SDS011;41039;49.830;23.988;2022-09-21T07:41:04;10.30;;;6.40;;
55146;SDS011;41039;49.830;23.988;2022-09-21T07:43:29;9.65;;;6.22;;
55146;SDS011;41039;49.830;23.988;2022-09-21T07:45:54;7.70;;;5.75;;
55146;SDS011;41039;49.830;23.988;2022-09-21T07:48:20;10.98;;;5.75;;
55146;SDS011;41039;49.830;23.988;2022-09-21T07:50:46;7.82;;;5.68;;
55146;SDS011;41039;49.830;23.988;2022-09-21T07:53:12;11.38;;;6.13;;
55146;SDS011;41039;49.830;23.988;2022-09-21T07:55:40;12.13;;;7.13;;
55146;SDS011;41039;49.830;23.988;2022-09-21T07:58:05;8.98;;;6.70;;
55146;SDS011;41039;49.830;23.988;2022-09-21T08:00:49;10.73;;;6.22;;
55146;SDS011;41039;49.830;23.988;2022-09-21T08:03:14;10.45;;;6.78;;
55146;SDS011;41039;49.830;23.988;2022-09-21T08:05:40;9.13;;;6.07;;
55146;SDS011;41039;49.830;23.988;2022-09-21T08:08:05;8.70;;;5.63;;
55146;SDS011;41039;49.830;23.988;2022-09-21T08:10:30;8.73;;;6.18;;
55146;SDS011;41039;49.830;23.988;2022-09-21T08:12:56;8.27;;;5.95;;
55146;SDS011;41039;49.830;23.988;2022-09-21T08:15:22;9.20;;;6.57;;
55146;SDS011;41039;49.830;23.988;2022-09-21T08:17:47;8.23;;;5.57;;
55146;SDS011;41039;49.830;23.988;2022-09-21T08:20:13;10.57;;;6.25;;
55146;SDS011;41039;49.830;23.988;2022-09-21T08:22:38;8.43;;;5.97;;
55146;SDS011;41039;49.830;23.988;2022-09-21T08:25:04;11.18;;;7.65;;
55146;SDS011;41039;49.830;23.988;2022-09-21T08:27:29;10.57;;;6.13;;
55146;SDS011;41039;49.830;23.988;2022-09-21T08:29:55;13.30;;;6.72;;
55146;SDS011;41039;49.830;23.988;2022-09-21T08:32:20;10.70;;;6.55;;
55146;SDS011;41039;49.830;23.988;2022-09-21T08:34:45;9.63;;;6.15;;
55146;SDS011;41039;49.830;23.988;2022-09-21T08:37:10;8.43;;;5.65;;
55146;SDS011;41039;49.830;23.988;2022-09-21T08:39:35;8.10;;;5.70;;
55146;SDS011;41039;49.830;23.988;2022-09-21T08:44:40;8.52;;;6.10;;
55146;SDS011;41039;49.830;23.988;2022-09-21T08:47:11;10.57;;;5.93;;
55146;SDS011;41039;49.830;23.988;2022-09-21T08:49:37;9.18;;;6.07;;
55146;SDS011;41039;49.830;23.988;2022-09-21T08:52:05;9.52;;;6.25;;
55146;SDS011;41039;49.830;23.988;2022-09-21T08:57:30;9.18;;;5.22;;
55146;SDS011;41039;49.830;23.988;2022-09-21T08:59:57;9.00;;;6.88;;
55146;SDS011;41039;49.830;23.988;2022-09-21T09:11:01;8.20;;;5.85;;
55146;SDS011;41039;49.830;23.988;2022-09-21T09:21:09;9.10;;;5.60;;
55146;SDS011;41039;49.830;23.988;2022-09-21T09:23:45;10.13;;;5.57;;
55146;SDS011;41039;49.830;23.988;2022-09-21T09:26:15;7.68;;;5.45;;
55146;SDS011;41039;49.830;23.988;2022-09-21T09:28:50;9.88;;;6.60;;
55146;SDS011;41039;49.830;23.988;2022-09-21T09:31:18;8.35;;;5.85;;
55146;SDS011;41039;49.830;23.988;2022-09-21T09:36:26;10.38;;;6.25;;
55146;SDS011;41039;49.830;23.988;2022-09-21T09:39:00;8.00;;;5.43;;
55146;SDS011;41039;49.830;23.988;2022-09-21T09:44:02;16.65;;;6.20;;
55146;SDS011;41039;49.830;23.988;2022-09-21T09:51:30;7.63;;;5.07;;
55146;SDS011;41039;49.830;23.988;2022-09-21T09:53:59;8.70;;;5.40;;
55146;SDS011;41039;49.830;23.988;2022-09-21T09:56:25;8.70;;;5.47;;
55146;SDS011;41039;49.830;23.988;2022-09-21T09:58:55;7.72;;;4.78;;
55146;SDS011;41039;49.830;23.988;2022-09-21T10:04:06;8.00;;;4.57;;
55146;SDS011;41039;49.830;23.988;2022-09-21T10:06:32;9.10;;;4.97;;
55146;SDS011;41039;49.830;23.988;2022-09-21T10:08:58;8.52;;;4.45;;
55146;SDS011;41039;49.830;23.988;2022-09-21T10:11:23;6.57;;;4.47;;
55146;SDS011;41039;49.830;23.988;2022-09-21T10:13:59;6.30;;;4.45;;
55146;SDS011;41039;49.830;23.988;2022-09-21T10:16:31;6.88;;;4.22;;
55146;SDS011;41039;49.830;23.988;2022-09-21T10:18:56;7.20;;;4.15;;
55146;SDS011;41039;49.830;23.988;2022-09-21T10:21:26;7.18;;;4.63;;
55146;SDS011;41039;49.830;23.988;2022-09-21T10:23:59;8.85;;;5.00;;
55146;SDS011;41039;49.830;23.988;2022-09-21T10:26:33;8.00;;;4.38;;
55146;SDS011;41039;49.830;23.988;2022-09-21T10:29:00;6.68;;;4.13;;
55146;SDS011;41039;49.830;23.988;2022-09-21T10:31:29;8.98;;;3.35;;
55146;SDS011;41039;49.830;23.988;2022-09-21T10:36:27;4.43;;;3.25;;
55146;SDS011;41039;49.830;23.988;2022-09-21T10:38:52;6.22;;;4.07;;
55146;SDS011;41039;49.830;23.988;2022-09-21T10:41:18;5.10;;;3.05;;
55146;SDS011;41039;49.830;23.988;2022-09-21T10:43:43;6.55;;;3.03;;
55146;SDS011;41039;49.830;23.988;2022-09-21T10:46:08;6.55;;;4.10;;
55146;SDS011;41039;49.830;23.988;2022-09-21T10:48:34;4.78;;;3.33;;
55146;SDS011;41039;49.830;23.988;2022-09-21T10:50:59;7.47;;;3.67;;
55146;SDS011;41039;49.830;23.988;2022-09-21T10:53:32;6.35;;;3.47;;
55146;SDS011;41039;49.830;23.988;2022-09-21T10:55:59;6.28;;;4.32;;
55146;SDS011;41039;49.830;23.988;2022-09-21T10:58:26;6.53;;;4.10;;
55146;SDS011;41039;49.830;23.988;2022-09-21T11:00:52;8.20;;;4.43;;
55146;SDS011;41039;49.830;23.988;2022-09-21T11:03:27;7.63;;;4.95;;
55146;SDS011;41039;49.830;23.988;2022-09-21T11:08:43;6.28;;;3.90;;
55146;SDS011;41039;49.830;23.988;2022-09-21T11:13:55;8.57;;;4.15;;
55146;SDS011;41039;49.830;23.988;2022-09-21T11:16:27;9.05;;;4.30;;
55146;SDS011;41039;49.830;23.988;2022-09-21T11:24:01;8.32;;;4.65;;
55146;SDS011;41039;49.830;23.988;2022-09-21T11:29:02;8.73;;;5.00;;
55146;SDS011;41039;49.830;23.988;2022-09-21T11:41:48;7.00;;;5.70;;
55146;SDS011;41039;49.830;23.988;2022-09-21T11:44:27;9.90;;;5.93;;
55146;SDS011;41039;49.830;23.988;2022-09-21T12:02:28;6.53;;;3.65;;
55146;SDS011;41039;49.830;23.988;2022-09-21T12:22:27;5.53;;;3.65;;
55146;SDS011;41039;49.830;23.988;2022-09-21T12:24:54;7.03;;;4.32;;
55146;SDS011;41039;49.830;23.988;2022-09-21T12:27:28;4.82;;;3.90;;
55146;SDS011;41039;49.830;23.988;2022-09-21T12:29:57;4.32;;;2.85;;
55146;SDS011;41039;49.830;23.988;2022-09-21T12:35:16;4.60;;;2.75;;
55146;SDS011;41039;49.830;23.988;2022-09-21T12:37:45;4.32;;;2.45;;
55146;SDS011;41039;49.830;23.988;2022-09-21T12:45:14;4.70;;;3.58;;
55146;SDS011;41039;49.830;23.988;2022-09-21T12:47:54;10.70;;;3.60;;
55146;SDS011;41039;49.830;23.988;2022-09-21T12:53:07;6.25;;;3.78;;
55146;SDS011;41039;49.830;23.988;2022-09-21T12:55:41;5.40;;;3.15;;
55146;SDS011;41039;49.830;23.988;2022-09-21T13:03:33;18.60;;;15.35;;
55146;SDS011;41039;49.830;23.988;2022-09-21T13:08:26;4.90;;;3.45;;
55146;SDS011;41039;49.830;23.988;2022-09-21T13:10:57;4.13;;;2.88;;
55146;SDS011;41039;49.830;23.988;2022-09-21T13:15:54;5.43;;;3.85;;
55146;SDS011;41039;49.830;23.988;2022-09-21T13:18:41;7.57;;;4.40;;
55146;SDS011;41039;49.830;23.988;2022-09-21T13:21:16;5.15;;;3.42;;
55146;SDS011;41039;49.830;23.988;2022-09-21T13:23:41;5.13;;;3.38;;
55146;SDS011;41039;49.830;23.988;2022-09-21T13:26:08;6.22;;;4.40;;
55146;SDS011;41039;49.830;23.988;2022-09-21T13:33:41;6.20;;;4.18;;
55146;SDS011;41039;49.830;23.988;2022-09-21T13:36:33;6.82;;;4.35;;
55146;SDS011;41039;49.830;23.988;2022-09-21T13:41:34;6.90;;;4.20;;
55146;SDS011;41039;49.830;23.988;2022-09-21T13:44:42;5.43;;;4.05;;
55146;SDS011;41039;49.830;23.988;2022-09-21T13:46:51;7.18;;;4.45;;
55146;SDS011;41039;49.830;23.988;2022-09-21T13:49:19;6.43;;;3.70;;
55146;SDS011;41039;49.830;23.988;2022-09-21T13:57:04;6.05;;;4.10;;
55146;SDS011;41039;49.830;23.988;2022-09-21T13:59:31;6.15;;;4.03;;
55146;SDS011;41039;49.830;23.988;2022-09-21T14:01:58;5.75;;;3.47;;
55146;SDS011;41039;49.830;23.988;2022-09-21T14:04:25;5.35;;;3.42;;
55146;SDS011;41039;49.830;23.988;2022-09-21T14:06:51;6.40;;;4.40;;
55146;SDS011;41039;49.830;23.988;2022-09-21T14:09:20;6.78;;;4.22;;
55146;SDS011;41039;49.830;23.988;2022-09-21T14:11:46;5.13;;;3.53;;
55146;SDS011;41039;49.830;23.988;2022-09-21T14:24:34;4.60;;;3.53;;
55146;SDS011;41039;49.830;23.988;2022-09-21T14:29:27;5.63;;;3.83;;
55146;SDS011;41039;49.830;23.988;2022-09-21T14:31:55;5.55;;;3.67;;
55146;SDS011;41039;49.830;23.988;2022-09-21T14:34:22;5.82;;;4.13;;
55146;SDS011;41039;49.830;23.988;2022-09-21T14:36:49;6.20;;;3.95;;
55146;SDS011;41039;49.830;23.988;2022-09-21T14:39:37;5.72;;;3.45;;
55146;SDS011;41039;49.830;23.988;2022-09-21T14:42:10;6.65;;;3.30;;
55146;SDS011;41039;49.830;23.988;2022-09-21T14:44:37;6.47;;;3.85;;
55146;SDS011;41039;49.830;23.988;2022-09-21T15:02:45;4.13;;;2.33;;
55146;SDS011;41039;49.830;23.988;2022-09-21T15:11:05;6.78;;;4.45;;
55146;SDS011;41039;49.830;23.988;2022-09-21T15:16:07;7.03;;;3.90;;
55146;SDS011;41039;49.830;23.988;2022-09-21T15:18:41;5.85;;;3.78;;
55146;SDS011;41039;49.830;23.988;2022-09-21T15:21:24;8.82;;;4.80;;
55146;SDS011;41039;49.830;23.988;2022-09-21T15:23:50;6.80;;;4.32;;
55146;SDS011;41039;49.830;23.988;2022-09-21T15:26:21;7.25;;;3.88;;
55146;SDS011;41039;49.830;23.988;2022-09-21T15:28:48;5.95;;;3.10;;
55146;SDS011;41039;49.830;23.988;2022-09-21T15:31:16;5.47;;;3.20;;
55146;SDS011;41039;49.830;23.988;2022-09-21T15:33:43;5.75;;;3.45;;
55146;SDS011;41039;49.830;23.988;2022-09-21T15:36:23;6.30;;;4.45;;
55146;SDS011;41039;49.830;23.988;2022-09-21T15:38:49;11.73;;;3.58;;
55146;SDS011;41039;49.830;23.988;2022-09-21T15:44:32;5.00;;;3.70;;
55146;SDS011;41039;49.830;23.988;2022-09-21T15:46:51;4.82;;;3.10;;
55146;SDS011;41039;49.830;23.988;2022-09-21T15:49:19;4.68;;;2.97;;
55146;SDS011;41039;49.830;23.988;2022-09-21T15:51:57;5.45;;;3.25;;
55146;SDS011;41039;49.830;23.988;2022-09-21T15:54:34;4.68;;;3.03;;
55146;SDS011;41039;49.830;23.988;2022-09-21T15:57:03;6.18;;;3.63;;
55146;SDS011;41039;49.830;23.988;2022-09-21T15:59:31;5.47;;;3.50;;
55146;SDS011;41039;49.830;23.988;2022-09-21T16:01:57;4.30;;;3.00;;
55146;SDS011;41039;49.830;23.988;2022-09-21T16:04:24;4.45;;;2.90;;
55146;SDS011;41039;49.830;23.988;2022-09-21T16:11:47;4.18;;;2.70;;
55146;SDS011;41039;49.830;23.988;2022-09-21T16:14:13;4.05;;;2.85;;
55146;SDS011;41039;49.830;23.988;2022-09-21T16:20:17;5.47;;;3.05;;
55146;SDS011;41039;49.830;23.988;2022-09-21T16:22:23;4.10;;;2.88;;
55146;SDS011;41039;49.830;23.988;2022-09-21T16:24:53;5.82;;;3.13;;
55146;SDS011;41039;49.830;23.988;2022-09-21T16:27:20;3.85;;;2.60;;
55146;SDS011;41039;49.830;23.988;2022-09-21T16:29:46;4.93;;;3.60;;
55146;SDS011;41039;49.830;23.988;2022-09-21T16:34:42;4.30;;;3.03;;
55146;SDS011;41039;49.830;23.988;2022-09-21T16:39:52;6.28;;;3.63;;
55146;SDS011;41039;49.830;23.988;2022-09-21T16:42:18;4.97;;;3.20;;
55146;SDS011;41039;49.830;23.988;2022-09-21T16:44:45;4.28;;;2.92;;
55146;SDS011;41039;49.830;23.988;2022-09-21T16:47:15;4.47;;;3.05;;
55146;SDS011;41039;49.830;23.988;2022-09-21T16:49:42;5.78;;;3.65;;
55146;SDS011;41039;49.830;23.988;2022-09-21T16:52:08;7.43;;;4.43;;
55146;SDS011;41039;49.830;23.988;2022-09-21T16:54:34;4.50;;;2.88;;
55146;SDS011;41039;49.830;23.988;2022-09-21T16:57:01;3.75;;;2.63;;
55146;SDS011;41039;49.830;23.988;2022-09-21T16:59:27;4.32;;;2.55;;
55146;SDS011;41039;49.830;23.988;2022-09-21T17:01:54;2.60;;;1.70;;
55146;SDS011;41039;49.830;23.988;2022-09-21T17:04:20;5.47;;;2.50;;
55146;SDS011;41039;49.830;23.988;2022-09-21T17:06:46;3.58;;;1.65;;
55146;SDS011;41039;49.830;23.988;2022-09-21T17:09:31;3.58;;;1.80;;
55146;SDS011;41039;49.830;23.988;2022-09-21T17:11:57;4.40;;;2.10;;
55146;SDS011;41039;49.830;23.988;2022-09-21T17:14:26;4.35;;;2.05;;
55146;SDS011;41039;49.830;23.988;2022-09-21T17:16:53;3.03;;;1.92;;
55146;SDS011;41039;49.830;23.988;2022-09-21T17:19:20;5.07;;;3.00;;
55146;SDS011;41039;49.830;23.988;2022-09-21T17:21:46;4.50;;;2.90;;
55146;SDS011;41039;49.830;23.988;2022-09-21T17:24:12;6.55;;;3.42;;
55146;SDS011;41039;49.830;23.988;2022-09-21T17:26:37;6.07;;;3.78;;
55146;SDS011;41039;49.830;23.988;2022-09-21T17:29:04;7.65;;;4.97;;
55146;SDS011;41039;49.830;23.988;2022-09-21T17:31:30;6.60;;;4.28;;
55146;SDS011;41039;49.830;23.988;2022-09-21T17:33:56;6.75;;;4.65;;
55146;SDS011;41039;49.830;23.988;2022-09-21T17:36:22;7.57;;;4.32;;
55146;SDS011;41039;49.830;23.988;2022-09-21T17:38:47;5.07;;;3.22;;
55146;SDS011;41039;49.830;23.988;2022-09-21T17:41:23;3.88;;;2.70;;
55146;SDS011;41039;49.830;23.988;2022-09-21T17:46:35;5.53;;;3.45;;
55146;SDS011;41039;49.830;23.988;2022-09-21T17:49:02;6.43;;;3.63;;
55146;SDS011;41039;49.830;23.988;2022-09-21T17:51:28;5.25;;;3.30;;
55146;SDS011;41039;49.830;23.988;2022-09-21T17:54:12;8.27;;;4.97;;
55146;SDS011;41039;49.830;23.988;2022-09-21T17:56:52;11.43;;;6.68;;
55146;SDS011;41039;49.830;23.988;2022-09-21T17:59:26;13.75;;;8.52;;
55146;SDS011;41039;49.830;23.988;2022-09-21T18:01:53;8.15;;;5.30;;
55146;SDS011;41039;49.830;23.988;2022-09-21T18:04:23;7.60;;;5.13;;
55146;SDS011;41039;49.830;23.988;2022-09-21T18:06:50;7.05;;;4.75;;
55146;SDS011;41039;49.830;23.988;2022-09-21T18:09:16;5.65;;;4.05;;
55146;SDS011;41039;49.830;23.988;2022-09-21T18:11:57;6.15;;;3.78;;
55146;SDS011;41039;49.830;23.988;2022-09-21T18:21:51;4.82;;;2.40;;
55146;SDS011;41039;49.830;23.988;2022-09-21T18:24:21;5.97;;;3.28;;
55146;SDS011;41039;49.830;23.988;2022-09-21T18:26:49;4.78;;;3.10;;
55146;SDS011;41039;49.830;23.988;2022-09-21T18:29:20;4.10;;;2.80;;
55146;SDS011;41039;49.830;23.988;2022-09-21T18:37:03;5.32;;;2.40;;
55146;SDS011;41039;49.830;23.988;2022-09-21T18:42:23;4.35;;;2.58;;
55146;SDS011;41039;49.830;23.988;2022-09-21T18:44:55;4.32;;;2.63;;
55146;SDS011;41039;49.830;23.988;2022-09-21T18:47:27;6.33;;;3.10;;